Aktualne dane pomiarowe

Uwaga, wersja testowa! Automatyczne pobieranie danych za pomocą narzędzi lub skryptów to umożliwiających jest zabronione.

Dane meteo z obszaru Polski uzyskane na podstawie depesz SYNOP pobieranych co godzinę z NWS. Najedź myszką na symbol przedstawiony w tabeli, aby uzyskać informacje co do jego znaczenia. Prosimy pamiętać, że to testowa wersja strony, która jeszcze nie jest ukończona. Stworzono również jest krótki FAQ dotyczący korzystania z tej podstrony Anomalie temperatury w chwili obecnej odniesione są do okresu referencyjnego 1951-2016. Okres ten będzie później zmieniony na 1981-2010. Kliknij ikonę aby pobrać plik CSV. Kliknij ikonę aby wygenerować mapę synoptyczną dla danego terminu.

Wybierz Datę:    

        

Sulejów (12469)

Dane terminowe dla wybranej stacji. Kliknij datę, aby otrzymać dane z tego terminu dla wszystkich stacji.

TemperaturaZachmurzenieWiatrCiśnienieOpadyPogoda
 Data t td wb tx tn tg rh  Nt Nl Cl Cm Ch ws wd g1 g2 wx mslp ppp ch 24h 12h t ww ww w1 w2  
2019-07-20 23:00:00 18.4 14.0 15.5--- 7630.0wx-wx2wx--21016.3 994.0 0.2---------
2019-07-20 22:00:00 19.8 14.1 16.1--- 7030.0wx-wx2wx--21016.2 994.0 0.6---------
2019-07-20 21:00:00 20.6 14.2 16.4--- 6730.0wx-wx1wx---1015.9 993.8 0.6---------
2019-07-20 20:00:00 20.6 13.5 16.0--- 6420.0wx-wx1wx--11015.9 993.8 0.6---------
2019-07-20 19:00:00 23.4 13.5 17.2--- 5425.0wxwxwxwx2wx--21015.3 993.4 0.2---------
2019-07-20 18:00:00 25.1 13.5 17.9 28.6 19.2- 4935.0wxwxwxwxwx2wx--21014.9 993.2 -0.1- 0.012------
2019-07-20 17:00:00 27.9 12.6 18.5--- 3940.0wxwxwxwxwx1wx--11014.7 993.2 -0.3---------
2019-07-20 16:00:00 28.3 11.7 18.3--- 3640.0wxwxwxwxwx2wx--21014.7 993.2 -0.5---------
2019-07-20 15:00:00 28.3 12.1 18.5--- 3740.0wxwxwxwxwx2wx--21014.8 993.3 -0.6---------
2019-07-20 14:00:00 27.6 12.3 18.3--- 3940.0wxwxwxwxwx2wx--21015.1 993.5 -0.7---------
2019-07-20 13:00:00 26.9 12.8 18.2--- 4240.0wxwxwx2wx--21015.3 993.7 -0.7---------
2019-07-20 12:00:00 27.4 12.1 18.1--- 3940.0wxwxwx3wx-931015.5 993.9 -0.6- 0.06------
2019-07-20 11:00:00 26.2 12.5 17.8--- 4340.0wxwxwxwx2wx-821015.9 994.2 -0.3---------
2019-07-20 10:00:00 25.4 13.2 17.8--- 4740.0wxwxwxwx1wx--11016.2 994.4 -0.1---------
2019-07-20 09:00:00 24.6 13.7 17.8--- 5130.0wxwxwx1wx--11016.3 994.5 0.1---------
2019-07-20 08:00:00 24.1 14.1 17.8--- 5425.0wxwxwxwx2wx--21016.4 994.5 0.3---------
2019-07-20 07:00:00 21.7 15.9 17.8--- 7018.0wx-wx1wx--11016.5 994.5 0.6---------
2019-07-20 06:00:00 19.2 16.1 17.0 20.9 16.7 16 8214.0wxwxwxwx1wx--11016.6 994.4 0.6 0.1 0.112wx-w1- 8.8
2019-07-20 05:00:00 17.6 16.0 16.4--- 908.0wxwxwxwx1wx---1016.5 994.2 0.7---wx---
2019-07-20 04:00:00 16.9 15.5 15.9--- 916.0wxwxwxwx2wx--21016.3 993.9 0.5---wx---
2019-07-20 03:00:00 16.8 15.4 15.8--- 918.0wxwxwxwx1wx--11016.2 993.8 0.4---wx-w1--
2019-07-20 02:00:00 16.8 15.2 15.7--- 9012.0wxwxwxwx2wx--21015.9 993.5 0.2---wx---
2019-07-20 01:00:00 17.0 15.4 15.9--- 9012.0wxwxwxwx2wx--21015.8 993.4 -0.1---wx---
2019-07-20 00:00:00 17.0 15.4 15.9--- 9012.0wxwxwx1wx--11015.8 993.4 0.1- 0.16wx-w1--
2019-07-19 23:00:00 17.1 15.2 15.7--- 8915.0wxwxwxwx1wx---1015.7 993.3 0.1---wx---
2019-07-19 22:00:00 17.6 14.9 15.7--- 8415.0wxwxwx2wx--21015.8 993.5 0.7---wx-w1--
2019-07-19 21:00:00 18.1 14.7 15.8--- 8120.0wxwxwx1wx--11015.6 993.3 1.0---wx-w1--
2019-07-19 20:00:00 18.4 15.0 16.1--- 8125.0wxwxwx2wx--21015.5 993.2 0.9---wx---
2019-07-19 19:00:00 19.9 13.5 15.8--- 6730.0wxwxwxwx1wx--11014.9 992.8 0.4---wx---
2019-07-19 18:00:00 20.9 13.2 16.0 29.5 17.8- 6145.0wxwxwxwx1wx-1311014.3 992.3 0.0--12wx-w1--
2019-07-19 17:00:00 22.2 12.1 16.0--- 5345.0wxwxwxwx3wx--31014.2 992.3 0.4---------
2019-07-19 16:00:00 23.2 11.8 16.3--- 4945.0wxwxwxwx3wx--31014.3 992.4 1.2---wx---
2019-07-19 15:00:00 21.5 12.3 15.8--- 5635.0wxwxwx2wx-1321014.3 992.3 0.8---wx-w1--
2019-07-19 14:00:00 21.9 11.8 15.7--- 5330.0wxwxwx7wx-1371013.9 991.9 0.2---wx-w1--
2019-07-19 13:00:00 27.9 7.6 16.3--- 2840.0wxwxwxwx2wx--21012.7 991.2 -0.7---------
2019-07-19 12:00:00 26.7 7.6 15.8--- 3045.0wxwxwxwx3wx-931013.1 991.5 -0.6- 0.06------
2019-07-19 11:00:00 27.8 6.4 15.8--- 2640.0wxwxwxwx2wx-621013.2 991.7 -0.5---------
2019-07-19 10:00:00 27.2 6.5 15.6--- 2735.0wxwxwxwx4wx9941013.5 991.9 -0.5---------
2019-07-19 09:00:00 25.8 6.3 15.0--- 2940.0wxwxwxwx2wx-721013.8 992.1 -0.2---------
2019-07-19 08:00:00 25.1 8.0 15.4--- 3435.0wxwxwxwx2wx7721013.9 992.2 0.0---------
2019-07-19 07:00:00 22.8 8.4 14.6--- 4040.0wxwxwxwx1wx--11014.3 992.4 0.3---------
2019-07-19 06:00:00 17.8 9.6 12.9 22.6 9.5 6 5935.0wxwxwxwxwx1wx--11014.6 992.3 0.3- 0.012----- 11.4
2019-07-19 05:00:00 13.4 8.6 10.4--- 7330.0wxwxwxwxwx1wx--11014.8 992.2 0.2----22----
2019-07-19 04:00:00 11.4 8.2 9.3--- 8130.0wxwxwxwx2wx--21014.9 992.1 0.1----22----
2019-07-19 03:00:00 9.6 7.3 8.1--- 8635.0wxwxwxwx1wx--11014.9 992.0 0.1----22----
2019-07-19 02:00:00 10.2 7.3 8.3--- 8235.0wxwxwxwx1wx--11014.9 992.0 0.2----22----
2019-07-19 01:00:00 10.1 7.8 8.6--- 8635.0wx-wx1wx--11014.9 992.0 0.3----22----
2019-07-19 00:00:00 10.5 7.5 8.6--- 8235.0wx-1wx--11014.8 991.9 0.3- 0.06-22----
1.5 ms

 

Print Friendly, PDF & Email